sensor_id;sensor_type;location;lat;lon;timestamp;P1;durP1;ratioP1;P2;durP2;ratioP2
56267;SDS011;42175;46.930;9.532;2023-05-14T00:01:58;3.97;;;1.85;;
56267;SDS011;42175;46.930;9.532;2023-05-14T00:04:24;2.80;;;1.58;;
56267;SDS011;42175;46.930;9.532;2023-05-14T00:06:50;2.92;;;1.63;;
56267;SDS011;42175;46.930;9.532;2023-05-14T00:09:16;3.30;;;1.70;;
56267;SDS011;42175;46.930;9.532;2023-05-14T00:11:42;4.85;;;2.25;;
56267;SDS011;42175;46.930;9.532;2023-05-14T00:14:07;4.07;;;1.98;;
56267;SDS011;42175;46.930;9.532;2023-05-14T00:16:33;2.05;;;1.67;;
56267;SDS011;42175;46.930;9.532;2023-05-14T00:18:59;3.88;;;1.70;;
56267;SDS011;42175;46.930;9.532;2023-05-14T00:21:24;6.68;;;2.42;;
56267;SDS011;42175;46.930;9.532;2023-05-14T00:23:50;3.22;;;2.28;;
56267;SDS011;42175;46.930;9.532;2023-05-14T00:26:16;3.50;;;1.75;;
56267;SDS011;42175;46.930;9.532;2023-05-14T00:28:41;2.92;;;1.63;;
56267;SDS011;42175;46.930;9.532;2023-05-14T00:31:07;3.25;;;2.10;;
56267;SDS011;42175;46.930;9.532;2023-05-14T00:33:33;3.22;;;1.90;;
56267;SDS011;42175;46.930;9.532;2023-05-14T00:35:59;3.65;;;2.10;;
56267;SDS011;42175;46.930;9.532;2023-05-14T00:38:24;4.40;;;2.13;;
56267;SDS011;42175;46.930;9.532;2023-05-14T00:40:52;3.42;;;1.80;;
56267;SDS011;42175;46.930;9.532;2023-05-14T00:43:18;2.90;;;1.77;;
56267;SDS011;42175;46.930;9.532;2023-05-14T00:45:45;4.53;;;1.85;;
56267;SDS011;42175;46.930;9.532;2023-05-14T00:48:15;3.50;;;1.75;;
56267;SDS011;42175;46.930;9.532;2023-05-14T00:50:42;5.03;;;2.00;;
56267;SDS011;42175;46.930;9.532;2023-05-14T00:53:08;2.55;;;1.60;;
56267;SDS011;42175;46.930;9.532;2023-05-14T00:55:38;3.00;;;2.20;;
56267;SDS011;42175;46.930;9.532;2023-05-14T00:58:09;3.53;;;1.75;;
56267;SDS011;42175;46.930;9.532;2023-05-14T01:00:37;2.75;;;1.70;;
56267;SDS011;42175;46.930;9.532;2023-05-14T01:03:04;2.58;;;1.98;;
56267;SDS011;42175;46.930;9.532;2023-05-14T01:08:17;2.67;;;1.52;;
56267;SDS011;42175;46.930;9.532;2023-05-14T01:10:48;3.03;;;1.63;;
56267;SDS011;42175;46.930;9.532;2023-05-14T01:15:56;3.28;;;1.70;;
56267;SDS011;42175;46.930;9.532;2023-05-14T01:18:24;4.68;;;1.92;;
56267;SDS011;42175;46.930;9.532;2023-05-14T01:20:52;2.60;;;1.70;;
56267;SDS011;42175;46.930;9.532;2023-05-14T01:23:18;5.25;;;2.17;;
56267;SDS011;42175;46.930;9.532;2023-05-14T01:25:44;2.90;;;1.75;;
56267;SDS011;42175;46.930;9.532;2023-05-14T01:28:12;4.15;;;1.75;;
56267;SDS011;42175;46.930;9.532;2023-05-14T01:33:25;3.95;;;1.90;;
56267;SDS011;42175;46.930;9.532;2023-05-14T01:35:53;3.30;;;1.70;;
56267;SDS011;42175;46.930;9.532;2023-05-14T01:38:20;3.05;;;1.65;;
56267;SDS011;42175;46.930;9.532;2023-05-14T01:40:47;4.32;;;1.98;;
56267;SDS011;42175;46.930;9.532;2023-05-14T01:43:14;3.00;;;1.50;;
56267;SDS011;42175;46.930;9.532;2023-05-14T01:45:41;3.88;;;1.67;;
56267;SDS011;42175;46.930;9.532;2023-05-14T01:48:07;2.40;;;1.60;;
56267;SDS011;42175;46.930;9.532;2023-05-14T01:50:33;6.43;;;2.20;;
56267;SDS011;42175;46.930;9.532;2023-05-14T01:52:59;2.58;;;1.80;;
56267;SDS011;42175;46.930;9.532;2023-05-14T01:55:25;2.28;;;1.70;;
56267;SDS011;42175;46.930;9.532;2023-05-14T01:57:51;2.95;;;2.03;;
56267;SDS011;42175;46.930;9.532;2023-05-14T02:00:17;2.95;;;1.88;;
56267;SDS011;42175;46.930;9.532;2023-05-14T02:02:43;3.05;;;2.00;;
56267;SDS011;42175;46.930;9.532;2023-05-14T02:05:09;2.75;;;1.60;;
56267;SDS011;42175;46.930;9.532;2023-05-14T02:07:37;3.35;;;1.75;;
56267;SDS011;42175;46.930;9.532;2023-05-14T02:10:03;3.85;;;1.58;;
56267;SDS011;42175;46.930;9.532;2023-05-14T02:12:29;4.55;;;1.70;;
56267;SDS011;42175;46.930;9.532;2023-05-14T02:14:55;4.35;;;1.90;;
56267;SDS011;42175;46.930;9.532;2023-05-14T02:17:21;2.90;;;1.80;;
56267;SDS011;42175;46.930;9.532;2023-05-14T02:19:46;4.10;;;1.80;;
56267;SDS011;42175;46.930;9.532;2023-05-14T02:22:12;4.50;;;1.88;;
56267;SDS011;42175;46.930;9.532;2023-05-14T02:24:38;2.25;;;1.60;;
56267;SDS011;42175;46.930;9.532;2023-05-14T02:27:04;3.47;;;2.00;;
56267;SDS011;42175;46.930;9.532;2023-05-14T02:29:30;5.32;;;1.40;;
56267;SDS011;42175;46.930;9.532;2023-05-14T02:31:56;3.50;;;1.73;;
56267;SDS011;42175;46.930;9.532;2023-05-14T02:34:21;3.65;;;2.10;;
56267;SDS011;42175;46.930;9.532;2023-05-14T02:36:47;2.38;;;1.48;;
56267;SDS011;42175;46.930;9.532;2023-05-14T02:39:13;2.92;;;1.90;;
56267;SDS011;42175;46.930;9.532;2023-05-14T02:41:39;2.95;;;1.50;;
56267;SDS011;42175;46.930;9.532;2023-05-14T02:44:05;2.83;;;1.63;;
56267;SDS011;42175;46.930;9.532;2023-05-14T02:46:30;2.53;;;1.83;;
56267;SDS011;42175;46.930;9.532;2023-05-14T02:48:56;2.05;;;1.55;;
56267;SDS011;42175;46.930;9.532;2023-05-14T02:51:22;2.33;;;1.60;;
56267;SDS011;42175;46.930;9.532;2023-05-14T02:53:48;3.28;;;1.80;;
56267;SDS011;42175;46.930;9.532;2023-05-14T02:56:14;5.32;;;1.80;;
56267;SDS011;42175;46.930;9.532;2023-05-14T02:58:40;4.25;;;1.83;;
56267;SDS011;42175;46.930;9.532;2023-05-14T03:01:06;2.83;;;1.85;;
56267;SDS011;42175;46.930;9.532;2023-05-14T03:03:32;2.70;;;1.70;;
56267;SDS011;42175;46.930;9.532;2023-05-14T03:06:00;5.22;;;1.73;;
56267;SDS011;42175;46.930;9.532;2023-05-14T03:08:26;2.67;;;1.70;;
56267;SDS011;42175;46.930;9.532;2023-05-14T03:10:51;3.00;;;1.67;;
56267;SDS011;42175;46.930;9.532;2023-05-14T03:13:17;2.40;;;1.67;;
56267;SDS011;42175;46.930;9.532;2023-05-14T03:15:44;2.80;;;1.70;;
56267;SDS011;42175;46.930;9.532;2023-05-14T03:18:11;2.10;;;1.50;;
56267;SDS011;42175;46.930;9.532;2023-05-14T03:20:40;2.85;;;1.80;;
56267;SDS011;42175;46.930;9.532;2023-05-14T03:23:06;2.67;;;1.70;;
56267;SDS011;42175;46.930;9.532;2023-05-14T03:25:31;5.13;;;1.80;;
56267;SDS011;42175;46.930;9.532;2023-05-14T03:27:58;3.00;;;1.98;;
56267;SDS011;42175;46.930;9.532;2023-05-14T03:30:24;2.53;;;1.80;;
56267;SDS011;42175;46.930;9.532;2023-05-14T03:32:49;2.67;;;1.80;;
56267;SDS011;42175;46.930;9.532;2023-05-14T03:35:15;2.67;;;1.70;;
56267;SDS011;42175;46.930;9.532;2023-05-14T03:37:41;3.97;;;1.98;;
56267;SDS011;42175;46.930;9.532;2023-05-14T03:40:07;4.38;;;2.20;;
56267;SDS011;42175;46.930;9.532;2023-05-14T03:42:33;3.03;;;2.10;;
56267;SDS011;42175;46.930;9.532;2023-05-14T03:44:59;2.95;;;1.90;;
56267;SDS011;42175;46.930;9.532;2023-05-14T03:47:25;2.75;;;1.70;;
56267;SDS011;42175;46.930;9.532;2023-05-14T03:49:50;2.80;;;1.90;;
56267;SDS011;42175;46.930;9.532;2023-05-14T03:52:16;2.65;;;1.88;;
56267;SDS011;42175;46.930;9.532;2023-05-14T03:54:42;2.95;;;1.77;;
56267;SDS011;42175;46.930;9.532;2023-05-14T03:57:07;2.88;;;2.00;;
56267;SDS011;42175;46.930;9.532;2023-05-14T03:59:33;4.95;;;2.15;;
56267;SDS011;42175;46.930;9.532;2023-05-14T04:01:59;4.03;;;1.77;;
56267;SDS011;42175;46.930;9.532;2023-05-14T04:04:25;3.15;;;2.08;;
56267;SDS011;42175;46.930;9.532;2023-05-14T04:06:50;2.28;;;1.58;;
56267;SDS011;42175;46.930;9.532;2023-05-14T04:09:16;4.45;;;1.95;;
56267;SDS011;42175;46.930;9.532;2023-05-14T04:11:42;2.95;;;2.00;;
56267;SDS011;42175;46.930;9.532;2023-05-14T04:14:08;2.35;;;1.70;;
56267;SDS011;42175;46.930;9.532;2023-05-14T04:16:33;2.72;;;1.50;;
56267;SDS011;42175;46.930;9.532;2023-05-14T04:19:00;3.83;;;1.55;;
56267;SDS011;42175;46.930;9.532;2023-05-14T04:21:28;2.33;;;1.77;;
56267;SDS011;42175;46.930;9.532;2023-05-14T04:23:54;2.72;;;1.73;;
56267;SDS011;42175;46.930;9.532;2023-05-14T04:26:20;2.75;;;1.92;;
56267;SDS011;42175;46.930;9.532;2023-05-14T04:28:45;2.33;;;1.63;;
56267;SDS011;42175;46.930;9.532;2023-05-14T04:31:11;2.97;;;1.80;;
56267;SDS011;42175;46.930;9.532;2023-05-14T04:33:37;6.32;;;1.70;;
56267;SDS011;42175;46.930;9.532;2023-05-14T04:36:04;4.15;;;1.63;;
56267;SDS011;42175;46.930;9.532;2023-05-14T04:38:30;2.38;;;1.73;;
56267;SDS011;42175;46.930;9.532;2023-05-14T04:40:56;4.43;;;1.58;;
56267;SDS011;42175;46.930;9.532;2023-05-14T04:43:22;2.53;;;1.88;;
56267;SDS011;42175;46.930;9.532;2023-05-14T04:45:48;2.33;;;1.50;;
56267;SDS011;42175;46.930;9.532;2023-05-14T04:48:15;1.67;;;1.52;;
56267;SDS011;42175;46.930;9.532;2023-05-14T04:50:41;1.77;;;1.45;;
56267;SDS011;42175;46.930;9.532;2023-05-14T04:53:08;2.22;;;1.80;;
56267;SDS011;42175;46.930;9.532;2023-05-14T04:55:34;2.78;;;1.58;;
56267;SDS011;42175;46.930;9.532;2023-05-14T04:58:00;3.92;;;1.80;;
56267;SDS011;42175;46.930;9.532;2023-05-14T05:00:26;2.28;;;1.65;;
56267;SDS011;42175;46.930;9.532;2023-05-14T05:02:52;2.95;;;1.50;;
56267;SDS011;42175;46.930;9.532;2023-05-14T05:05:18;2.92;;;1.70;;
56267;SDS011;42175;46.930;9.532;2023-05-14T05:07:44;2.30;;;1.45;;
56267;SDS011;42175;46.930;9.532;2023-05-14T05:10:10;2.53;;;1.58;;
56267;SDS011;42175;46.930;9.532;2023-05-14T05:12:36;2.40;;;1.50;;
56267;SDS011;42175;46.930;9.532;2023-05-14T05:15:02;2.55;;;1.60;;
56267;SDS011;42175;46.930;9.532;2023-05-14T05:17:28;2.05;;;1.42;;
56267;SDS011;42175;46.930;9.532;2023-05-14T05:19:54;2.78;;;1.60;;
56267;SDS011;42175;46.930;9.532;2023-05-14T05:22:20;3.58;;;1.70;;
56267;SDS011;42175;46.930;9.532;2023-05-14T05:24:46;2.55;;;1.45;;
56267;SDS011;42175;46.930;9.532;2023-05-14T05:27:12;1.90;;;1.40;;
56267;SDS011;42175;46.930;9.532;2023-05-14T05:29:38;1.75;;;1.30;;
56267;SDS011;42175;46.930;9.532;2023-05-14T05:32:04;2.75;;;1.40;;
56267;SDS011;42175;46.930;9.532;2023-05-14T05:34:30;11.27;;;1.98;;
56267;SDS011;42175;46.930;9.532;2023-05-14T05:36:55;6.35;;;1.75;;
56267;SDS011;42175;46.930;9.532;2023-05-14T05:39:21;5.55;;;1.85;;
56267;SDS011;42175;46.930;9.532;2023-05-14T05:41:47;4.20;;;1.95;;
56267;SDS011;42175;46.930;9.532;2023-05-14T05:44:13;13.57;;;3.70;;
56267;SDS011;42175;46.930;9.532;2023-05-14T05:46:38;22.23;;;14.70;;
56267;SDS011;42175;46.930;9.532;2023-05-14T05:49:04;49.80;;;31.30;;
56267;SDS011;42175;46.930;9.532;2023-05-14T05:51:30;72.68;;;33.88;;
56267;SDS011;42175;46.930;9.532;2023-05-14T05:53:56;72.25;;;28.48;;
56267;SDS011;42175;46.930;9.532;2023-05-14T05:56:22;75.85;;;30.92;;
56267;SDS011;42175;46.930;9.532;2023-05-14T05:58:48;70.65;;;27.38;;
56267;SDS011;42175;46.930;9.532;2023-05-14T06:01:13;64.43;;;29.05;;
56267;SDS011;42175;46.930;9.532;2023-05-14T06:03:39;61.08;;;23.10;;
56267;SDS011;42175;46.930;9.532;2023-05-14T06:06:05;60.60;;;21.13;;
56267;SDS011;42175;46.930;9.532;2023-05-14T06:08:30;42.25;;;20.42;;
56267;SDS011;42175;46.930;9.532;2023-05-14T06:10:56;57.65;;;22.48;;
56267;SDS011;42175;46.930;9.532;2023-05-14T06:13:22;52.72;;;19.45;;
56267;SDS011;42175;46.930;9.532;2023-05-14T06:15:48;61.35;;;20.05;;
56267;SDS011;42175;46.930;9.532;2023-05-14T06:18:13;51.08;;;17.00;;
56267;SDS011;42175;46.930;9.532;2023-05-14T06:20:39;40.03;;;17.15;;
56267;SDS011;42175;46.930;9.532;2023-05-14T06:23:05;49.60;;;15.55;;
56267;SDS011;42175;46.930;9.532;2023-05-14T06:25:32;46.85;;;15.55;;
56267;SDS011;42175;46.930;9.532;2023-05-14T06:27:58;39.17;;;13.35;;
56267;SDS011;42175;46.930;9.532;2023-05-14T06:30:24;31.75;;;12.98;;
56267;SDS011;42175;46.930;9.532;2023-05-14T06:32:49;39.17;;;12.43;;
56267;SDS011;42175;46.930;9.532;2023-05-14T06:35:16;31.50;;;11.55;;
56267;SDS011;42175;46.930;9.532;2023-05-14T06:37:43;33.28;;;11.98;;
56267;SDS011;42175;46.930;9.532;2023-05-14T06:40:09;35.70;;;10.93;;
56267;SDS011;42175;46.930;9.532;2023-05-14T06:42:36;33.80;;;11.32;;
56267;SDS011;42175;46.930;9.532;2023-05-14T06:45:02;28.77;;;9.65;;
56267;SDS011;42175;46.930;9.532;2023-05-14T06:47:29;32.78;;;10.60;;
56267;SDS011;42175;46.930;9.532;2023-05-14T06:49:54;30.10;;;9.52;;
56267;SDS011;42175;46.930;9.532;2023-05-14T06:52:22;26.88;;;8.13;;
56267;SDS011;42175;46.930;9.532;2023-05-14T06:54:49;24.60;;;8.52;;
56267;SDS011;42175;46.930;9.532;2023-05-14T06:57:14;24.95;;;8.80;;
56267;SDS011;42175;46.930;9.532;2023-05-14T06:59:40;34.78;;;9.05;;
56267;SDS011;42175;46.930;9.532;2023-05-14T07:02:06;26.58;;;7.72;;
56267;SDS011;42175;46.930;9.532;2023-05-14T07:04:32;22.45;;;6.90;;
56267;SDS011;42175;46.930;9.532;2023-05-14T07:06:57;19.42;;;6.68;;
56267;SDS011;42175;46.930;9.532;2023-05-14T07:09:23;20.80;;;7.25;;
56267;SDS011;42175;46.930;9.532;2023-05-14T07:11:49;16.92;;;6.63;;
56267;SDS011;42175;46.930;9.532;2023-05-14T07:14:14;13.27;;;6.10;;
56267;SDS011;42175;46.930;9.532;2023-05-14T07:16:40;16.63;;;7.05;;
56267;SDS011;42175;46.930;9.532;2023-05-14T07:19:06;25.92;;;7.07;;
56267;SDS011;42175;46.930;9.532;2023-05-14T07:21:33;20.55;;;6.85;;
56267;SDS011;42175;46.930;9.532;2023-05-14T07:24:00;13.30;;;6.35;;
56267;SDS011;42175;46.930;9.532;2023-05-14T07:26:26;18.63;;;6.15;;
56267;SDS011;42175;46.930;9.532;2023-05-14T07:28:51;13.70;;;5.90;;
56267;SDS011;42175;46.930;9.532;2023-05-14T07:31:17;17.70;;;5.50;;
56267;SDS011;42175;46.930;9.532;2023-05-14T07:33:43;20.50;;;6.20;;
56267;SDS011;42175;46.930;9.532;2023-05-14T07:36:09;13.90;;;5.18;;
56267;SDS011;42175;46.930;9.532;2023-05-14T07:38:35;13.95;;;5.03;;
56267;SDS011;42175;46.930;9.532;2023-05-14T07:41:01;15.13;;;5.20;;
56267;SDS011;42175;46.930;9.532;2023-05-14T07:43:26;13.38;;;4.22;;
56267;SDS011;42175;46.930;9.532;2023-05-14T07:45:52;12.48;;;5.32;;
56267;SDS011;42175;46.930;9.532;2023-05-14T07:48:18;13.98;;;4.45;;
56267;SDS011;42175;46.930;9.532;2023-05-14T07:50:44;12.13;;;4.85;;
56267;SDS011;42175;46.930;9.532;2023-05-14T07:53:09;9.07;;;4.20;;
56267;SDS011;42175;46.930;9.532;2023-05-14T07:55:35;12.80;;;4.85;;
56267;SDS011;42175;46.930;9.532;2023-05-14T07:58:01;13.48;;;4.53;;
56267;SDS011;42175;46.930;9.532;2023-05-14T08:00:26;12.13;;;4.40;;
56267;SDS011;42175;46.930;9.532;2023-05-14T08:02:53;11.35;;;4.65;;
56267;SDS011;42175;46.930;9.532;2023-05-14T08:05:19;12.63;;;4.00;;
56267;SDS011;42175;46.930;9.532;2023-05-14T08:07:45;12.07;;;4.38;;
56267;SDS011;42175;46.930;9.532;2023-05-14T08:10:11;5.80;;;3.75;;
56267;SDS011;42175;46.930;9.532;2023-05-14T08:12:37;11.38;;;4.00;;
56267;SDS011;42175;46.930;9.532;2023-05-14T08:15:03;8.30;;;4.18;;
56267;SDS011;42175;46.930;9.532;2023-05-14T08:17:29;7.32;;;3.95;;
56267;SDS011;42175;46.930;9.532;2023-05-14T08:19:55;11.45;;;4.07;;
56267;SDS011;42175;46.930;9.532;2023-05-14T08:22:21;9.55;;;4.25;;
56267;SDS011;42175;46.930;9.532;2023-05-14T08:24:47;8.10;;;3.58;;
56267;SDS011;42175;46.930;9.532;2023-05-14T08:27:12;9.07;;;4.55;;
56267;SDS011;42175;46.930;9.532;2023-05-14T08:29:38;7.22;;;4.13;;
56267;SDS011;42175;46.930;9.532;2023-05-14T08:32:04;8.75;;;4.32;;
56267;SDS011;42175;46.930;9.532;2023-05-14T08:34:30;7.30;;;3.78;;
56267;SDS011;42175;46.930;9.532;2023-05-14T08:36:55;7.47;;;4.10;;
56267;SDS011;42175;46.930;9.532;2023-05-14T08:39:21;7.90;;;3.75;;
56267;SDS011;42175;46.930;9.532;2023-05-14T08:41:47;6.38;;;3.60;;
56267;SDS011;42175;46.930;9.532;2023-05-14T08:44:17;6.95;;;4.55;;
56267;SDS011;42175;46.930;9.532;2023-05-14T08:46:44;8.00;;;3.33;;
56267;SDS011;42175;46.930;9.532;2023-05-14T08:52:11;6.13;;;3.30;;
56267;SDS011;42175;46.930;9.532;2023-05-14T08:54:37;6.07;;;3.42;;
56267;SDS011;42175;46.930;9.532;2023-05-14T08:57:09;4.53;;;3.38;;
56267;SDS011;42175;46.930;9.532;2023-05-14T08:59:36;7.15;;;3.47;;
56267;SDS011;42175;46.930;9.532;2023-05-14T09:02:02;8.35;;;3.55;;
56267;SDS011;42175;46.930;9.532;2023-05-14T09:04:30;5.45;;;3.38;;
56267;SDS011;42175;46.930;9.532;2023-05-14T09:06:58;8.32;;;3.90;;
56267;SDS011;42175;46.930;9.532;2023-05-14T09:09:26;6.00;;;2.88;;
56267;SDS011;42175;46.930;9.532;2023-05-14T09:11:53;6.28;;;2.92;;
56267;SDS011;42175;46.930;9.532;2023-05-14T09:14:19;10.20;;;4.25;;
56267;SDS011;42175;46.930;9.532;2023-05-14T09:16:47;6.68;;;3.42;;
56267;SDS011;42175;46.930;9.532;2023-05-14T09:19:14;7.32;;;3.70;;
56267;SDS011;42175;46.930;9.532;2023-05-14T09:21:46;6.53;;;3.10;;
56267;SDS011;42175;46.930;9.532;2023-05-14T09:24:23;6.75;;;2.97;;
56267;SDS011;42175;46.930;9.532;2023-05-14T09:26:52;5.25;;;2.97;;
56267;SDS011;42175;46.930;9.532;2023-05-14T09:29:20;6.18;;;3.42;;
56267;SDS011;42175;46.930;9.532;2023-05-14T09:31:48;5.78;;;2.85;;
56267;SDS011;42175;46.930;9.532;2023-05-14T09:34:29;4.68;;;2.65;;
56267;SDS011;42175;46.930;9.532;2023-05-14T09:36:57;7.65;;;2.80;;
56267;SDS011;42175;46.930;9.532;2023-05-14T09:39:23;3.72;;;2.65;;
56267;SDS011;42175;46.930;9.532;2023-05-14T09:41:51;7.00;;;2.80;;
56267;SDS011;42175;46.930;9.532;2023-05-14T09:44:17;4.60;;;2.70;;
56267;SDS011;42175;46.930;9.532;2023-05-14T09:46:44;5.85;;;2.85;;
56267;SDS011;42175;46.930;9.532;2023-05-14T09:49:10;4.38;;;2.83;;
56267;SDS011;42175;46.930;9.532;2023-05-14T09:51:36;4.57;;;2.53;;
56267;SDS011;42175;46.930;9.532;2023-05-14T09:54:03;8.50;;;2.63;;
56267;SDS011;42175;46.930;9.532;2023-05-14T09:56:30;4.50;;;2.53;;
56267;SDS011;42175;46.930;9.532;2023-05-14T09:58:57;5.80;;;2.53;;
56267;SDS011;42175;46.930;9.532;2023-05-14T10:01:22;4.90;;;2.72;;
56267;SDS011;42175;46.930;9.532;2023-05-14T10:03:49;3.50;;;2.20;;
56267;SDS011;42175;46.930;9.532;2023-05-14T10:06:17;4.32;;;2.25;;
56267;SDS011;42175;46.930;9.532;2023-05-14T10:08:46;5.68;;;2.70;;
56267;SDS011;42175;46.930;9.532;2023-05-14T10:11:17;5.28;;;2.55;;
56267;SDS011;42175;46.930;9.532;2023-05-14T10:13:54;6.93;;;2.70;;
56267;SDS011;42175;46.930;9.532;2023-05-14T10:16:33;2.75;;;1.90;;
56267;SDS011;42175;46.930;9.532;2023-05-14T10:19:10;3.05;;;2.05;;
56267;SDS011;42175;46.930;9.532;2023-05-14T10:21:37;5.05;;;2.20;;
56267;SDS011;42175;46.930;9.532;2023-05-14T10:24:05;5.53;;;2.38;;
56267;SDS011;42175;46.930;9.532;2023-05-14T10:26:38;2.38;;;1.80;;
56267;SDS011;42175;46.930;9.532;2023-05-14T10:29:06;3.30;;;2.05;;
56267;SDS011;42175;46.930;9.532;2023-05-14T10:31:43;3.30;;;2.25;;
56267;SDS011;42175;46.930;9.532;2023-05-14T10:37:01;2.70;;;1.90;;
56267;SDS011;42175;46.930;9.532;2023-05-14T10:39:50;3.97;;;2.33;;
56267;SDS011;42175;46.930;9.532;2023-05-14T10:42:16;5.05;;;2.05;;
56267;SDS011;42175;46.930;9.532;2023-05-14T10:44:53;2.97;;;2.15;;
56267;SDS011;42175;46.930;9.532;2023-05-14T10:47:28;3.05;;;2.17;;
56267;SDS011;42175;46.930;9.532;2023-05-14T10:49:56;3.35;;;1.92;;
56267;SDS011;42175;46.930;9.532;2023-05-14T10:52:23;3.38;;;2.10;;
56267;SDS011;42175;46.930;9.532;2023-05-14T10:57:17;4.50;;;2.20;;
56267;SDS011;42175;46.930;9.532;2023-05-14T10:59:48;3.92;;;2.20;;
56267;SDS011;42175;46.930;9.532;2023-05-14T11:02:20;3.47;;;2.50;;
56267;SDS011;42175;46.930;9.532;2023-05-14T11:04:59;10.68;;;2.60;;
56267;SDS011;42175;46.930;9.532;2023-05-14T11:07:31;2.42;;;2.05;;
56267;SDS011;42175;46.930;9.532;2023-05-14T11:10:08;2.92;;;2.10;;
56267;SDS011;42175;46.930;9.532;2023-05-14T11:12:35;3.33;;;2.00;;
56267;SDS011;42175;46.930;9.532;2023-05-14T11:15:06;3.10;;;1.98;;
56267;SDS011;42175;46.930;9.532;2023-05-14T11:17:33;2.25;;;1.73;;
56267;SDS011;42175;46.930;9.532;2023-05-14T11:20:01;3.00;;;2.08;;
56267;SDS011;42175;46.930;9.532;2023-05-14T11:22:27;4.80;;;1.60;;
56267;SDS011;42175;46.930;9.532;2023-05-14T11:24:53;7.13;;;2.10;;
56267;SDS011;42175;46.930;9.532;2023-05-14T11:27:19;4.50;;;2.10;;
56267;SDS011;42175;46.930;9.532;2023-05-14T11:29:47;4.82;;;2.10;;
56267;SDS011;42175;46.930;9.532;2023-05-14T11:32:13;3.92;;;1.90;;
56267;SDS011;42175;46.930;9.532;2023-05-14T11:34:40;2.40;;;1.70;;
56267;SDS011;42175;46.930;9.532;2023-05-14T11:37:09;3.20;;;2.08;;
56267;SDS011;42175;46.930;9.532;2023-05-14T11:39:37;4.78;;;2.00;;
56267;SDS011;42175;46.930;9.532;2023-05-14T11:42:10;5.65;;;2.20;;
56267;SDS011;42175;46.930;9.532;2023-05-14T11:44:41;2.90;;;2.10;;
56267;SDS011;42175;46.930;9.532;2023-05-14T11:47:10;3.90;;;2.00;;
56267;SDS011;42175;46.930;9.532;2023-05-14T11:49:36;2.53;;;1.80;;
56267;SDS011;42175;46.930;9.532;2023-05-14T11:52:03;2.60;;;2.00;;
56267;SDS011;42175;46.930;9.532;2023-05-14T11:54:31;4.82;;;1.60;;
56267;SDS011;42175;46.930;9.532;2023-05-14T11:56:58;7.20;;;1.90;;
56267;SDS011;42175;46.930;9.532;2023-05-14T11:59:26;4.28;;;1.90;;
56267;SDS011;42175;46.930;9.532;2023-05-14T12:01:53;2.55;;;1.60;;
56267;SDS011;42175;46.930;9.532;2023-05-14T12:04:19;6.35;;;2.10;;
56267;SDS011;42175;46.930;9.532;2023-05-14T12:06:52;5.72;;;2.58;;
56267;SDS011;42175;46.930;9.532;2023-05-14T12:09:18;5.50;;;2.10;;
56267;SDS011;42175;46.930;9.532;2023-05-14T12:11:45;8.10;;;2.03;;
56267;SDS011;42175;46.930;9.532;2023-05-14T12:14:15;3.70;;;1.95;;
56267;SDS011;42175;46.930;9.532;2023-05-14T12:16:45;2.33;;;1.48;;
56267;SDS011;42175;46.930;9.532;2023-05-14T12:19:15;12.13;;;1.92;;
56267;SDS011;42175;46.930;9.532;2023-05-14T12:21:43;4.10;;;1.27;;
56267;SDS011;42175;46.930;9.532;2023-05-14T12:24:17;2.95;;;1.77;;
56267;SDS011;42175;46.930;9.532;2023-05-14T12:26:47;3.38;;;2.10;;
56267;SDS011;42175;46.930;9.532;2023-05-14T12:29:15;3.63;;;1.50;;
56267;SDS011;42175;46.930;9.532;2023-05-14T12:31:45;2.28;;;1.75;;
56267;SDS011;42175;46.930;9.532;2023-05-14T12:34:11;4.63;;;1.73;;
56267;SDS011;42175;46.930;9.532;2023-05-14T12:36:38;3.13;;;1.50;;
56267;SDS011;42175;46.930;9.532;2023-05-14T12:39:04;5.38;;;1.67;;
56267;SDS011;42175;46.930;9.532;2023-05-14T12:41:30;4.40;;;1.77;;
56267;SDS011;42175;46.930;9.532;2023-05-14T12:43:56;5.28;;;1.95;;
56267;SDS011;42175;46.930;9.532;2023-05-14T12:46:23;2.35;;;1.42;;
56267;SDS011;42175;46.930;9.532;2023-05-14T12:48:51;5.85;;;1.55;;
56267;SDS011;42175;46.930;9.532;2023-05-14T12:51:18;7.55;;;1.50;;
56267;SDS011;42175;46.930;9.532;2023-05-14T12:53:43;9.25;;;1.60;;
56267;SDS011;42175;46.930;9.532;2023-05-14T12:56:09;4.05;;;1.83;;
56267;SDS011;42175;46.930;9.532;2023-05-14T12:58:36;7.32;;;1.70;;
56267;SDS011;42175;46.930;9.532;2023-05-14T13:01:03;2.70;;;1.48;;
56267;SDS011;42175;46.930;9.532;2023-05-14T13:03:29;4.68;;;1.60;;
56267;SDS011;42175;46.930;9.532;2023-05-14T13:05:55;3.50;;;1.40;;
56267;SDS011;42175;46.930;9.532;2023-05-14T13:08:21;2.72;;;1.30;;
56267;SDS011;42175;46.930;9.532;2023-05-14T13:10:49;3.80;;;2.08;;
56267;SDS011;42175;46.930;9.532;2023-05-14T13:13:18;2.58;;;1.52;;
56267;SDS011;42175;46.930;9.532;2023-05-14T13:15:44;4.63;;;1.80;;
56267;SDS011;42175;46.930;9.532;2023-05-14T13:18:17;3.10;;;1.77;;
56267;SDS011;42175;46.930;9.532;2023-05-14T13:20:43;3.65;;;1.88;;
56267;SDS011;42175;46.930;9.532;2023-05-14T13:23:11;2.83;;;1.80;;
56267;SDS011;42175;46.930;9.532;2023-05-14T13:25:37;3.90;;;1.60;;
56267;SDS011;42175;46.930;9.532;2023-05-14T13:28:03;2.20;;;1.50;;
56267;SDS011;42175;46.930;9.532;2023-05-14T13:30:29;2.70;;;1.60;;
56267;SDS011;42175;46.930;9.532;2023-05-14T13:32:56;2.25;;;1.42;;
56267;SDS011;42175;46.930;9.532;2023-05-14T13:35:23;1.40;;;1.10;;
56267;SDS011;42175;46.930;9.532;2023-05-14T13:37:49;4.50;;;1.55;;
56267;SDS011;42175;46.930;9.532;2023-05-14T13:40:14;3.00;;;1.55;;
56267;SDS011;42175;46.930;9.532;2023-05-14T13:42:41;2.60;;;1.30;;
56267;SDS011;42175;46.930;9.532;2023-05-14T13:45:07;1.55;;;1.30;;
56267;SDS011;42175;46.930;9.532;2023-05-14T13:47:33;1.60;;;1.40;;
56267;SDS011;42175;46.930;9.532;2023-05-14T13:49:59;1.90;;;1.30;;
56267;SDS011;42175;46.930;9.532;2023-05-14T13:52:25;4.40;;;1.10;;
56267;SDS011;42175;46.930;9.532;2023-05-14T13:54:51;2.42;;;1.23;;
56267;SDS011;42175;46.930;9.532;2023-05-14T13:57:17;2.00;;;1.20;;
56267;SDS011;42175;46.930;9.532;2023-05-14T13:59:45;1.83;;;1.30;;
56267;SDS011;42175;46.930;9.532;2023-05-14T14:02:11;2.00;;;1.50;;
56267;SDS011;42175;46.930;9.532;2023-05-14T14:04:36;2.13;;;1.40;;
56267;SDS011;42175;46.930;9.532;2023-05-14T14:07:02;4.38;;;1.27;;
56267;SDS011;42175;46.930;9.532;2023-05-14T14:09:28;1.92;;;1.15;;
56267;SDS011;42175;46.930;9.532;2023-05-14T14:11:59;1.50;;;1.30;;
56267;SDS011;42175;46.930;9.532;2023-05-14T14:14:27;2.25;;;1.20;;
56267;SDS011;42175;46.930;9.532;2023-05-14T14:16:53;1.65;;;1.10;;
56267;SDS011;42175;46.930;9.532;2023-05-14T14:19:18;1.85;;;1.30;;
56267;SDS011;42175;46.930;9.532;2023-05-14T14:21:44;3.00;;;1.30;;
56267;SDS011;42175;46.930;9.532;2023-05-14T14:24:10;2.20;;;1.70;;
56267;SDS011;42175;46.930;9.532;2023-05-14T14:26:36;5.05;;;3.47;;
56267;SDS011;42175;46.930;9.532;2023-05-14T14:29:02;12.13;;;8.18;;
56267;SDS011;42175;46.930;9.532;2023-05-14T14:31:27;15.82;;;12.27;;
56267;SDS011;42175;46.930;9.532;2023-05-14T14:33:53;21.45;;;18.05;;
56267;SDS011;42175;46.930;9.532;2023-05-14T14:36:19;21.45;;;17.20;;
56267;SDS011;42175;46.930;9.532;2023-05-14T14:38:44;23.85;;;18.85;;
56267;SDS011;42175;46.930;9.532;2023-05-14T14:41:10;22.95;;;20.15;;
56267;SDS011;42175;46.930;9.532;2023-05-14T14:43:36;23.15;;;18.80;;
56267;SDS011;42175;46.930;9.532;2023-05-14T14:46:04;26.38;;;19.00;;
56267;SDS011;42175;46.930;9.532;2023-05-14T14:48:30;24.48;;;19.20;;
56267;SDS011;42175;46.930;9.532;2023-05-14T14:51:01;23.92;;;17.30;;
56267;SDS011;42175;46.930;9.532;2023-05-14T14:53:28;22.85;;;18.25;;
56267;SDS011;42175;46.930;9.532;2023-05-14T14:55:54;23.50;;;18.90;;
56267;SDS011;42175;46.930;9.532;2023-05-14T14:58:21;21.30;;;16.85;;